Time;durP1;ratioP1;P1;durP2;ratioP2;P2;SDS_P1;SDS_P2;PMS_P1;PMS_P2;Temp;Humidity;BMP_temperature;BMP_pressure;BME280_temperature;BME280_humidity;BME280_pressure;Samples;Min_cycle;Max_cycle;Signal;HPM_P1;HPM_P2
2022/11/12 00:01:56;;;;;;;10.43;4.20;;;5.10;99.90;;;;;;5024696;28;20049;-49
2022/11/12 00:04:41;;;;;;;12.00;5.10;;;5.10;99.90;;;;;;5027384;28;20044;-48
2022/11/12 00:07:27;;;;;;;9.82;5.13;;;5.10;99.90;;;;;;5025861;28;20060;-51
2022/11/12 00:10:13;;;;;;;11.77;4.35;;;5.10;99.90;;;;;;5031156;28;20052;-51
2022/11/12 00:12:58;;;;;;;11.57;5.10;;;5.10;99.90;;;;;;5028521;28;20107;-46
2022/11/12 00:15:46;;;;;;;7.80;4.32;;;5.10;99.90;;;;;;5028686;28;20044;-48
2022/11/12 00:18:31;;;;;;;12.07;4.85;;;5.10;99.90;;;;;;5029146;28;20067;-47
2022/11/12 00:21:16;;;;;;;10.73;4.25;;;5.20;99.90;;;;;;5026611;28;20053;-47
2022/11/12 00:24:02;;;;;;;12.55;5.20;;;5.20;99.90;;;;;;5025887;28;20044;-47
2022/11/12 00:26:47;;;;;;;10.95;4.85;;;5.20;99.90;;;;;;5027346;28;20127;-47
2022/11/12 00:29:33;;;;;;;14.43;4.90;;;5.30;99.90;;;;;;5031761;28;20133;-51
2022/11/12 00:32:19;;;;;;;9.25;4.55;;;5.30;99.90;;;;;;5027887;28;20537;-48
2022/11/12 00:35:05;;;;;;;9.15;4.57;;;5.30;99.90;;;;;;5027359;28;20117;-46
2022/11/12 00:37:55;;;;;;;10.57;4.78;;;5.30;99.90;;;;;;5029333;28;20068;-48
2022/11/12 00:40:41;;;;;;;12.63;4.60;;;5.30;99.90;;;;;;5029166;28;20052;-48
2022/11/12 00:43:27;;;;;;;7.78;4.03;;;5.30;99.90;;;;;;5030114;28;20041;-48
2022/11/12 00:46:13;;;;;;;9.68;4.18;;;5.30;99.90;;;;;;5024525;28;20516;-48
2022/11/12 00:48:58;;;;;;;9.82;4.10;;;5.30;99.90;;;;;;5026659;28;20065;-49
2022/11/12 00:51:43;;;;;;;7.38;3.60;;;5.30;99.90;;;;;;5023537;28;20049;-49
2022/11/12 00:54:29;;;;;;;8.75;4.82;;;5.20;99.90;;;;;;5027506;28;20056;-48
2022/11/12 00:57:14;;;;;;;9.40;4.10;;;5.20;99.90;;;;;;5025982;28;20135;-48
2022/11/12 00:59:59;;;;;;;8.02;3.78;;;5.20;99.90;;;;;;5023733;28;20061;-48
2022/11/12 01:02:45;;;;;;;7.18;3.95;;;5.20;99.90;;;;;;5029224;28;20048;-48
2022/11/12 01:05:35;;;;;;;7.88;3.90;;;5.20;99.90;;;;;;5015511;28;20089;-49
2022/11/12 01:08:20;;;;;;;7.85;3.72;;;5.20;99.90;;;;;;5030761;28;20509;-48
2022/11/12 01:11:14;;;;;;;6.93;3.25;;;5.70;99.90;;;;;;5021198;28;20469;-50
2022/11/12 01:14:10;;;;;;;7.82;3.83;;;5.10;99.90;;;;;;5020228;28;20061;-48
2022/11/12 01:16:55;;;;;;;7.72;3.80;;;5.10;99.90;;;;;;5017629;28;20103;-48
2022/11/12 01:19:40;;;;;;;5.40;3.45;;;5.10;99.90;;;;;;5019199;28;20515;-48
2022/11/12 01:22:23;;;;;;;9.98;4.22;;;5.10;99.90;;;;;;5053197;28;20421;-48
2022/11/12 01:25:09;;;;;;;7.00;3.90;;;5.10;99.90;;;;;;5063534;28;20060;-47
2022/11/12 01:27:54;;;;;;;7.13;4.20;;;5.00;99.90;;;;;;5054553;28;20555;-48
2022/11/12 01:30:39;;;;;;;7.65;3.90;;;5.10;99.90;;;;;;5061376;28;20044;-48
2022/11/12 01:33:25;;;;;;;6.15;3.65;;;5.10;99.90;;;;;;5037797;28;20079;-47
2022/11/12 01:36:12;;;;;;;9.02;3.63;;;5.10;99.90;;;;;;5044425;28;20175;-48
2022/11/12 01:38:57;;;;;;;10.30;4.00;;;5.00;99.90;;;;;;5033679;28;20076;-47
2022/11/12 01:41:43;;;;;;;9.30;3.88;;;5.10;99.90;;;;;;5036227;28;20055;-48
2022/11/12 01:44:34;;;;;;;6.88;3.58;;;5.10;99.90;;;;;;5032115;28;20052;-48
2022/11/12 01:47:38;;;;;;;6.82;3.95;;;5.10;99.90;;;;;;5039019;28;20067;-48
2022/11/12 01:50:32;;;;;;;10.07;4.18;;;5.00;99.90;;;;;;5050862;28;20521;-48
2022/11/12 01:53:21;;;;;;;8.50;3.97;;;5.10;99.90;;;;;;5047625;28;20048;-48
2022/11/12 01:56:07;;;;;;;6.72;3.75;;;5.10;99.90;;;;;;5047111;28;20106;-48
2022/11/12 01:59:01;;;;;;;9.50;3.83;;;5.10;99.90;;;;;;5043879;28;20516;-47
2022/11/12 02:01:46;;;;;;;12.20;4.25;;;5.10;99.90;;;;;;5044478;28;20884;-47
2022/11/12 02:04:33;;;;;;;7.47;4.18;;;5.10;99.90;;;;;;5044435;28;20040;-47
2022/11/12 02:07:21;;;;;;;6.15;3.63;;;5.20;99.90;;;;;;5031541;28;20064;-48
2022/11/12 02:10:08;;;;;;;9.20;4.15;;;5.10;99.90;;;;;;5038744;28;20051;-48
2022/11/12 02:15:57;;;;;;;7.25;4.00;;;5.10;99.90;;;;;;5041341;28;20134;-48
2022/11/12 02:18:43;;;;;;;12.88;4.38;;;5.10;99.90;;;;;;5044583;28;20051;-48
2022/11/12 02:21:29;;;;;;;5.97;3.85;;;5.10;99.90;;;;;;5044309;28;20114;-47
2022/11/12 02:24:14;;;;;;;8.48;4.15;;;5.00;99.90;;;;;;5044346;28;20048;-47
2022/11/12 02:27:00;;;;;;;7.82;3.75;;;5.00;99.90;;;;;;5036623;28;20604;-48
2022/11/12 02:29:45;;;;;;;7.30;4.00;;;5.00;99.90;;;;;;5040527;28;20148;-48
2022/11/12 02:32:31;;;;;;;5.93;3.80;;;4.90;99.90;;;;;;5030081;28;20191;-48
2022/11/12 02:35:16;;;;;;;8.73;4.00;;;4.90;99.90;;;;;;5036319;28;20056;-48
2022/11/12 02:38:02;;;;;;;11.15;4.05;;;4.90;99.90;;;;;;5039030;28;20100;-48
2022/11/12 02:40:48;;;;;;;8.00;4.32;;;4.90;99.90;;;;;;5033702;28;20095;-48
2022/11/12 02:43:33;;;;;;;8.43;4.55;;;4.90;99.90;;;;;;5038938;28;20138;-48
2022/11/12 02:46:19;;;;;;;7.80;3.90;;;4.90;99.90;;;;;;5037946;28;20131;-47
2022/11/12 02:49:04;;;;;;;6.53;3.97;;;4.90;99.90;;;;;;5040627;28;20571;-47
2022/11/12 02:51:49;;;;;;;9.75;3.80;;;4.90;99.90;;;;;;5034393;28;20049;-48
2022/11/12 02:54:35;;;;;;;7.60;3.97;;;4.80;99.90;;;;;;5037920;28;20191;-47
2022/11/12 02:57:20;;;;;;;9.57;4.20;;;4.80;99.90;;;;;;5030102;28;20536;-48
2022/11/12 03:00:09;;;;;;;6.80;3.92;;;4.80;99.90;;;;;;5042267;28;20796;-47
2022/11/12 03:02:57;;;;;;;;;;;4.80;99.90;;;;;;5058046;28;20130;-48
2022/11/12 03:05:45;;;;;;;7.03;3.85;;;4.70;99.90;;;;;;5048557;28;19927;-49
2022/11/12 03:08:30;;;;;;;7.55;3.83;;;4.70;99.90;;;;;;5048903;28;20532;-49
2022/11/12 03:11:16;;;;;;;9.02;3.70;;;4.60;99.90;;;;;;5038753;28;20041;-48
2022/11/12 03:14:01;;;;;;;6.88;3.42;;;4.60;99.90;;;;;;5046393;28;20047;-49
2022/11/12 03:16:47;;;;;;;7.03;4.13;;;4.60;99.90;;;;;;5062540;28;20082;-48
2022/11/12 03:19:32;;;;;;;9.80;3.65;;;4.70;99.90;;;;;;5042538;28;20059;-46
2022/11/12 03:22:18;;;;;;;8.27;3.92;;;4.70;99.90;;;;;;5033187;28;20449;-47
2022/11/12 03:25:04;;;;;;;10.52;3.50;;;4.70;99.90;;;;;;5058032;28;20068;-47
2022/11/12 03:27:59;;;;;;;6.85;3.13;;;4.60;99.90;;;;;;5053012;28;20106;-48
2022/11/12 03:30:45;;;;;;;6.70;3.30;;;4.60;99.90;;;;;;5052802;28;20048;-48
2022/11/12 03:33:30;;;;;;;6.72;3.42;;;4.60;99.90;;;;;;5054275;28;20049;-48
2022/11/12 03:36:15;;;;;;;8.32;3.13;;;4.50;99.90;;;;;;5052310;28;20516;-48
2022/11/12 03:39:01;;;;;;;9.98;4.10;;;4.50;99.90;;;;;;5064012;28;20507;-50
2022/11/12 03:41:46;;;;;;;7.47;3.60;;;4.50;99.90;;;;;;5070949;28;20048;-49
2022/11/12 03:44:32;;;;;;;7.78;4.05;;;4.40;99.90;;;;;;5043539;28;20176;-48
2022/11/12 03:47:17;;;;;;;11.90;4.68;;;4.40;99.90;;;;;;5057458;28;20081;-48
2022/11/12 03:50:03;;;;;;;9.68;4.40;;;4.40;99.90;;;;;;5033284;28;20056;-48
2022/11/12 03:52:51;;;;;;;8.25;3.70;;;4.50;99.90;;;;;;5032084;28;20192;-49
2022/11/12 03:55:37;;;;;;;10.45;3.70;;;4.50;99.90;;;;;;5033602;28;20106;-49
2022/11/12 03:58:22;;;;;;;8.60;3.97;;;4.50;99.90;;;;;;5057545;28;20460;-48
2022/11/12 04:01:08;;;;;;;9.30;3.92;;;4.50;99.90;;;;;;5058256;28;20052;-48
2022/11/12 04:03:53;;;;;;;7.78;3.75;;;4.50;99.90;;;;;;5070860;28;20047;-49
2022/11/12 04:09:43;;;;;;;6.63;3.63;;;4.40;99.90;;;;;;5041378;28;20060;-49
2022/11/12 04:15:32;;;;;;;7.32;3.65;;;4.30;99.90;;;;;;5072634;28;20072;-48
2022/11/12 04:21:55;;;;;;;5.78;3.53;;;4.20;99.90;;;;;;5059769;28;20524;-49
2022/11/12 04:27:45;;;;;;;11.25;3.85;;;4.20;99.90;;;;;;5067984;28;20125;-48
2022/11/12 04:30:31;;;;;;;4.88;3.22;;;4.30;99.90;;;;;;5068023;28;20129;-50
2022/11/12 04:33:16;;;;;;;10.18;3.70;;;4.30;99.90;;;;;;5032758;28;20072;-48
2022/11/12 04:36:02;;;;;;;7.05;3.78;;;4.30;99.90;;;;;;5036215;28;20056;-49
2022/11/12 04:38:47;;;;;;;7.22;3.55;;;4.20;99.90;;;;;;5058927;28;20050;-49
2022/11/12 04:47:45;;;;;;;7.00;3.50;;;4.10;99.90;;;;;;5050507;28;20420;-47
2022/11/12 04:50:30;;;;;;;7.82;3.42;;;4.20;99.90;;;;;;5055576;28;20151;-47
2022/11/12 04:53:16;;;;;;;6.53;3.95;;;4.10;99.90;;;;;;5031775;28;20049;-46
2022/11/12 04:56:01;;;;;;;7.95;3.78;;;4.10;99.90;;;;;;5037788;28;20052;-46
2022/11/12 04:58:47;;;;;;;7.40;3.95;;;4.10;99.90;;;;;;5033868;28;20056;-49
2022/11/12 05:01:32;;;;;;;9.05;4.25;;;4.00;99.90;;;;;;5046449;28;20136;-49
2022/11/12 05:04:18;;;;;;;9.10;4.00;;;4.00;99.90;;;;;;5065588;28;20102;-48
2022/11/12 05:07:04;;;;;;;10.68;4.55;;;4.00;99.90;;;;;;5031794;28;20048;-48
2022/11/12 05:09:49;;;;;;;7.20;3.85;;;4.00;99.90;;;;;;5038610;28;20051;-49
2022/11/12 05:12:35;;;;;;;8.13;3.92;;;4.00;99.90;;;;;;5066765;28;20050;-48
2022/11/12 05:15:20;;;;;;;8.85;3.75;;;4.00;99.90;;;;;;5042145;28;20080;-47
2022/11/12 05:18:05;;;;;;;5.00;3.40;;;4.00;99.90;;;;;;5031625;28;20521;-49
2022/11/12 05:20:52;;;;;;;7.60;3.90;;;4.00;99.90;;;;;;5053745;28;20056;-47
2022/11/12 05:23:37;;;;;;;10.40;4.30;;;4.10;99.90;;;;;;5062889;28;20124;-47
2022/11/12 05:26:23;;;;;;;7.10;3.17;;;4.10;99.90;;;;;;5060192;28;20121;-48
2022/11/12 05:29:08;;;;;;;7.45;3.58;;;4.10;99.90;;;;;;5030259;28;20477;-48
2022/11/12 05:31:54;;;;;;;8.70;4.22;;;4.10;99.90;;;;;;5031197;28;20060;-48
2022/11/12 05:34:40;;;;;;;8.25;4.05;;;4.10;99.90;;;;;;5041112;28;20170;-48
2022/11/12 05:37:25;;;;;;;7.90;4.03;;;4.10;99.90;;;;;;5070626;28;20432;-50
2022/11/12 05:40:10;;;;;;;9.02;4.03;;;4.50;99.90;;;;;;5036240;28;20056;-48
2022/11/12 05:42:56;;;;;;;7.00;3.80;;;4.10;99.90;;;;;;5046166;28;20051;-48
2022/11/12 05:45:42;;;;;;;8.65;3.88;;;4.10;99.90;;;;;;5043182;28;20500;-50
2022/11/12 05:48:27;;;;;;;29.55;9.45;;;4.00;99.90;;;;;;5039674;28;20722;-48
2022/11/12 05:51:13;;;;;;;10.13;4.63;;;4.00;99.90;;;;;;5031065;28;20092;-47
2022/11/12 05:53:59;;;;;;;5.72;3.30;;;4.00;99.90;;;;;;5056866;28;20102;-48
2022/11/12 05:56:45;;;;;;;7.90;3.78;;;3.90;99.90;;;;;;5052703;28;20103;-48
2022/11/12 05:59:30;;;;;;;7.18;4.00;;;3.90;99.90;;;;;;5051575;28;20049;-48
2022/11/12 06:02:15;;;;;;;8.68;3.67;;;3.90;99.90;;;;;;5048614;28;20048;-48
2022/11/12 06:05:01;;;;;;;7.35;3.97;;;3.90;99.90;;;;;;5070663;28;20063;-50
2022/11/12 06:07:46;;;;;;;12.88;3.97;;;3.90;99.90;;;;;;5048497;28;20580;-47
2022/11/12 06:10:32;;;;;;;7.65;3.78;;;3.90;99.90;;;;;;5062582;28;20048;-49
2022/11/12 06:13:18;;;;;;;8.13;4.30;;;4.00;99.90;;;;;;5029634;28;20726;-50
2022/11/12 06:16:04;;;;;;;6.82;3.70;;;3.90;99.90;;;;;;5054281;28;20436;-48
2022/11/12 06:18:49;;;;;;;7.30;3.95;;;3.90;99.90;;;;;;5030042;28;20053;-48
2022/11/12 06:21:35;;;;;;;6.18;3.45;;;3.90;99.90;;;;;;5032806;28;20064;-48
2022/11/12 06:24:21;;;;;;;8.13;4.55;;;3.80;99.90;;;;;;5038755;28;20397;-48
2022/11/12 06:27:06;;;;;;;9.27;4.60;;;3.80;99.90;;;;;;5039221;28;20059;-47
2022/11/12 06:29:52;;;;;;;9.02;4.88;;;3.80;99.90;;;;;;5070584;28;20060;-48
2022/11/12 06:32:37;;;;;;;8.50;4.40;;;3.80;99.90;;;;;;5064997;28;20052;-50
2022/11/12 06:35:22;;;;;;;9.18;4.63;;;3.90;99.90;;;;;;5067801;28;20048;-48
2022/11/12 06:38:08;;;;;;;8.98;4.93;;;3.90;99.90;;;;;;5031336;28;20114;-47
2022/11/12 06:40:53;;;;;;;10.93;5.13;;;3.90;99.90;;;;;;5040153;28;20068;-48
2022/11/12 06:43:40;;;;;;;13.88;5.60;;;3.90;99.90;;;;;;5050643;28;20421;-47
2022/11/12 06:46:25;;;;;;;10.05;4.97;;;3.90;99.90;;;;;;5043319;28;20552;-48
2022/11/12 06:49:10;;;;;;;9.00;4.82;;;3.90;99.90;;;;;;5058880;28;20051;-48
2022/11/12 06:51:56;;;;;;;10.40;5.90;;;3.90;99.90;;;;;;5035999;28;20682;-48
2022/11/12 06:54:41;;;;;;;9.75;5.47;;;3.90;99.90;;;;;;5034932;28;20413;-47
2022/11/12 06:57:26;;;;;;;10.55;4.75;;;4.00;99.90;;;;;;5068066;28;20060;-48
2022/11/12 07:00:12;;;;;;;9.82;4.90;;;4.00;99.90;;;;;;5058232;28;20064;-48
2022/11/12 07:02:58;;;;;;;10.32;5.05;;;4.10;99.90;;;;;;5039708;28;20064;-49
2022/11/12 07:05:43;;;;;;;9.30;4.57;;;4.10;99.90;;;;;;5064574;28;20055;-50
2022/11/12 07:08:28;;;;;;;10.63;5.32;;;4.10;99.90;;;;;;5073427;28;20562;-49
2022/11/12 07:11:15;;;;;;;14.32;6.47;;;4.20;99.90;;;;;;5034687;28;20417;-52
2022/11/12 07:14:00;;;;;;;10.90;6.32;;;4.20;99.90;;;;;;5067544;28;20101;-48
2022/11/12 07:16:45;;;;;;;14.30;7.07;;;4.30;99.90;;;;;;5034261;28;20140;-47
2022/11/12 07:19:31;;;;;;;10.02;6.07;;;4.30;99.90;;;;;;5033284;28;20067;-48
2022/11/12 07:26:23;;;;;;;10.85;5.07;;;4.40;99.90;;;;;;5028025;28;20055;-48
2022/11/12 07:29:08;;;;;;;7.97;3.63;;;4.50;99.90;;;;;;5049377;28;20079;-48
2022/11/12 07:31:54;;;;;;;9.50;5.45;;;4.50;99.90;;;;;;5040191;28;20064;-47
2022/11/12 07:34:39;;;;;;;12.25;5.85;;;4.60;99.90;;;;;;5051691;28;20044;-47
2022/11/12 07:37:25;;;;;;;10.90;5.18;;;4.60;99.90;;;;;;5051980;28;20067;-48
2022/11/12 07:40:10;;;;;;;11.60;5.65;;;4.70;99.90;;;;;;5051218;28;20056;-47
2022/11/12 07:42:58;;;;;;;15.73;6.85;;;4.80;99.90;;;;;;5051281;28;20059;-47
2022/11/12 07:45:43;;;;;;;12.98;6.10;;;4.80;99.90;;;;;;5053814;28;20508;-48
2022/11/12 07:48:29;;;;;;;12.75;6.93;;;4.80;99.90;;;;;;5048482;28;20051;-47
2022/11/12 07:51:18;;;;;;;16.13;7.95;;;4.80;99.90;;;;;;5052761;28;20543;-48
2022/11/12 07:54:03;;;;;;;14.98;7.40;;;4.90;99.90;;;;;;5052610;28;20183;-48
2022/11/12 07:56:48;;;;;;;14.82;7.65;;;4.90;99.90;;;;;;5051020;28;20187;-47
2022/11/12 07:59:34;;;;;;;13.52;6.78;;;5.00;99.90;;;;;;5053571;28;20055;-48
2022/11/12 08:02:19;;;;;;;13.73;6.28;;;5.00;99.90;;;;;;5051355;28;20052;-48
2022/11/12 08:05:05;;;;;;;12.73;6.50;;;5.10;99.90;;;;;;5045325;28;20110;-47
2022/11/12 08:08:00;;;;;;;8.80;5.90;;;5.10;99.90;;;;;;5052096;28;20122;-47
2022/11/12 08:10:46;;;;;;;12.32;6.47;;;5.20;99.90;;;;;;5052098;28;20413;-48
2022/11/12 08:13:31;;;;;;;12.43;6.30;;;5.20;99.90;;;;;;5049755;28;20056;-47
2022/11/12 08:16:17;;;;;;;12.70;6.63;;;5.30;99.90;;;;;;5045236;28;20048;-48
2022/11/12 08:19:02;;;;;;;11.77;5.38;;;5.40;99.90;;;;;;5053239;28;20052;-48
2022/11/12 08:21:47;;;;;;;9.10;5.00;;;5.60;99.90;;;;;;5050092;28;20052;-47
2022/11/12 08:24:33;;;;;;;8.90;4.80;;;5.70;99.90;;;;;;5049979;28;20134;-49
2022/11/12 08:27:18;;;;;;;7.00;4.45;;;5.80;99.90;;;;;;5045747;28;20059;-47
2022/11/12 08:30:04;;;;;;;8.45;4.85;;;5.80;99.90;;;;;;5052846;28;20059;-47
2022/11/12 08:32:56;;;;;;;8.27;4.68;;;5.90;99.90;;;;;;5044493;28;20079;-48
2022/11/12 08:35:42;;;;;;;10.43;4.95;;;6.00;99.90;;;;;;5048374;28;20048;-47
2022/11/12 08:38:27;;;;;;;8.57;4.75;;;6.10;99.90;;;;;;5052433;28;20086;-47
2022/11/12 08:41:15;;;;;;;9.95;4.38;;;6.30;99.90;;;;;;5046946;28;20598;-48
2022/11/12 08:44:00;;;;;;;8.52;4.53;;;6.40;99.90;;;;;;5046642;28;20044;-48
2022/11/12 08:46:52;;;;;;;7.38;4.55;;;6.40;99.90;;;;;;5051624;28;20496;-47
2022/11/12 08:49:37;;;;;;;9.05;4.35;;;6.50;99.90;;;;;;5042626;28;20433;-47
2022/11/12 08:52:29;;;;;;;10.68;4.30;;;6.60;99.90;;;;;;5047097;28;20572;-48
2022/11/12 08:55:14;;;;;;;12.57;4.53;;;6.70;99.90;;;;;;5050463;28;20095;-48
2022/11/12 08:58:03;;;;;;;9.73;5.13;;;6.70;99.90;;;;;;5042763;28;20063;-48
2022/11/12 09:00:49;;;;;;;;;;;6.80;99.90;;;;;;5046952;28;20049;-49
2022/11/12 09:03:35;;;;;;;6.90;4.38;;;6.90;99.90;;;;;;5051279;28;19931;-49
2022/11/12 09:06:20;;;;;;;6.22;3.88;;;7.00;99.90;;;;;;5051595;28;20048;-48
2022/11/12 09:09:06;;;;;;;5.68;3.80;;;6.90;99.90;;;;;;5043915;28;20071;-49
2022/11/12 09:11:51;;;;;;;9.52;4.13;;;7.00;99.90;;;;;;5049214;28;20080;-50
2022/11/12 09:14:36;;;;;;;14.27;4.82;;;7.00;99.90;;;;;;5050831;28;20651;-49
2022/11/12 09:17:22;;;;;;;7.20;4.68;;;7.10;99.90;;;;;;5048252;28;20090;-51
2022/11/12 09:20:08;;;;;;;9.82;5.13;;;7.20;99.90;;;;;;5050692;28;20052;-48
2022/11/12 09:23:01;;;;;;;7.53;5.05;;;7.40;99.90;;;;;;5050931;28;20048;-48
2022/11/12 09:25:46;;;;;;;7.88;5.05;;;7.50;99.90;;;;;;5046486;28;20052;-51
2022/11/12 09:28:32;;;;;;;8.13;4.63;;;7.60;99.90;;;;;;5050722;28;20044;-49
2022/11/12 09:31:17;;;;;;;8.25;4.38;;;7.80;99.90;;;;;;5049705;28;20048;-51
2022/11/12 09:34:03;;;;;;;7.38;3.75;;;7.70;99.90;;;;;;5046687;28;20048;-47
2022/11/12 09:36:49;;;;;;;7.35;4.05;;;7.90;99.90;;;;;;5049391;28;20047;-47
2022/11/12 09:39:34;;;;;;;7.47;4.28;;;7.80;99.90;;;;;;5048108;28;20051;-47
2022/11/12 09:42:21;;;;;;;7.85;4.30;;;7.80;99.90;;;;;;5036379;28;20179;-47
2022/11/12 09:45:30;;;;;;;8.60;4.28;;;7.80;99.90;;;;;;5050369;28;20064;-48
2022/11/12 09:48:33;;;;;;;6.97;4.18;;;7.70;99.90;;;;;;5043456;28;20059;-47
2022/11/12 09:51:29;;;;;;;10.48;4.15;;;7.80;99.90;;;;;;5044663;28;20087;-48
2022/11/12 09:54:27;;;;;;;8.07;4.32;;;7.70;99.90;;;;;;5046296;28;20118;-48
2022/11/12 09:57:12;;;;;;;10.05;5.07;;;7.80;99.90;;;;;;5047312;28;20055;-48
2022/11/12 09:59:58;;;;;;;7.07;3.90;;;7.80;99.90;;;;;;5050718;28;20059;-47
2022/11/12 10:03:10;;;;;;;8.73;4.05;;;7.90;99.90;;;;;;5049798;28;20515;-47
2022/11/12 10:06:19;;;;;;;7.38;4.55;;;8.00;99.90;;;;;;5047618;28;20076;-47
2022/11/12 10:09:18;;;;;;;6.50;3.50;;;8.30;99.90;;;;;;5050457;28;20639;-48
2022/11/12 10:12:41;;;;;;;9.38;4.30;;;8.40;99.90;;;;;;5049665;28;20176;-48
2022/11/12 10:19:08;;;;;;;7.25;4.00;;;8.60;99.90;;;;;;5048981;28;20516;-47
2022/11/12 10:22:42;;;;;;;9.80;4.10;;;8.50;99.90;;;;;;5048953;28;20055;-49
2022/11/12 10:25:28;;;;;;;11.27;4.65;;;8.70;99.90;;;;;;5041498;28;20068;-50
2022/11/12 10:28:25;;;;;;;6.68;4.50;;;8.90;99.90;;;;;;5052917;28;20068;-48
2022/11/12 10:31:14;;;;;;;7.43;3.67;;;9.00;99.90;;;;;;5053779;28;20071;-48
2022/11/12 10:34:10;;;;;;;;;;;9.10;99.90;;;;;;5046163;28;20082;-48
2022/11/12 10:37:03;;;;;;;6.10;3.38;;;9.20;99.90;;;;;;5053655;28;20346;-50
2022/11/12 10:39:49;;;;;;;7.05;3.75;;;9.20;99.90;;;;;;5054125;28;20148;-49
2022/11/12 10:42:34;;;;;;;10.70;5.05;;;9.20;99.90;;;;;;5048929;28;20040;-47
2022/11/12 10:45:21;;;;;;;56.47;17.98;;;9.30;99.90;;;;;;5039124;28;20048;-50
2022/11/12 10:48:22;;;;;;;14.98;5.65;;;9.40;99.90;;;;;;5054672;28;20052;-48
2022/11/12 10:51:23;;;;;;;5.40;3.40;;;9.40;99.90;;;;;;5043774;28;20051;-49
2022/11/12 10:54:27;;;;;;;5.35;3.60;;;9.50;99.90;;;;;;5053330;28;20103;-49
2022/11/12 10:57:23;;;;;;;7.65;3.83;;;9.50;99.90;;;;;;5051600;28;20079;-47
2022/11/12 11:00:11;;;;;;;5.75;3.15;;;9.70;99.90;;;;;;5052986;28;20063;-49
2022/11/12 11:02:57;;;;;;;;;;;9.70;99.90;;;;;;5054581;28;20056;-48
2022/11/12 11:05:45;;;;;;;4.97;3.72;;;9.80;99.90;;;;;;5042583;28;20392;-48
2022/11/12 11:08:45;;;;;;;4.22;3.20;;;9.70;99.90;;;;;;5053877;28;20059;-47
2022/11/12 11:11:31;;;;;;;11.30;4.07;;;9.80;99.90;;;;;;5053058;28;20421;-49
2022/11/12 11:14:24;;;;;;;7.35;4.30;;;9.90;99.90;;;;;;5049844;28;20183;-49
2022/11/12 11:17:16;;;;;;;8.90;5.43;;;9.80;99.90;;;;;;5050878;28;20055;-48
2022/11/12 11:20:04;;;;;;;9.65;4.70;;;9.80;99.90;;;;;;5050712;28;20059;-48
2022/11/12 11:22:55;;;;;;;5.97;3.50;;;10.10;99.90;;;;;;5052050;28;20460;-48
2022/11/12 11:25:42;;;;;;;16.80;8.10;;;10.20;99.90;;;;;;5048640;28;20235;-47
2022/11/12 11:28:50;;;;;;;6.72;4.03;;;10.30;99.90;;;;;;5056229;28;20048;-50
2022/11/12 11:31:54;;;;;;;12.80;5.15;;;10.30;99.90;;;;;;5049206;28;20056;-48
2022/11/12 11:35:04;;;;;;;8.93;3.28;;;10.40;99.90;;;;;;5045716;28;20047;-48
2022/11/12 11:38:14;;;;;;;4.20;2.70;;;10.60;99.90;;;;;;5050534;28;20127;-55
2022/11/12 11:41:19;;;;;;;;;;;10.80;99.90;;;;;;5053793;28;20048;-48
2022/11/12 11:44:20;;;;;;;3.58;3.08;;;11.00;99.90;;;;;;5048437;28;19927;-49
2022/11/12 11:47:27;;;;;;;10.05;3.78;;;11.10;99.90;;;;;;5053586;28;20059;-48
2022/11/12 11:50:38;;;;;;;5.60;3.55;;;11.20;99.90;;;;;;5040713;28;20425;-48
2022/11/12 11:53:36;;;;;;;5.07;2.97;;;11.40;99.90;;;;;;5051891;28;20056;-49
2022/11/12 11:56:35;;;;;;;8.23;3.10;;;11.50;99.90;;;;;;5053200;28;20052;-48
2022/11/12 11:59:38;;;;;;;7.05;3.33;;;11.60;99.90;;;;;;5044596;28;20039;-52
2022/11/12 12:02:35;;;;;;;4.55;3.42;;;11.50;99.90;;;;;;5051579;28;20083;-51
2022/11/12 12:05:39;;;;;;;8.57;3.53;;;11.50;99.90;;;;;;5053395;28;20142;-49
2022/11/12 12:08:32;;;;;;;10.73;3.63;;;11.30;99.90;;;;;;5047611;28;20063;-49
2022/11/12 12:11:46;;;;;;;6.78;3.22;;;11.30;99.90;;;;;;5045688;28;20183;-48
2022/11/12 12:14:56;;;;;;;5.50;3.58;;;11.30;99.90;;;;;;5049908;28;20515;-49
2022/11/12 12:17:49;;;;;;;6.28;3.10;;;11.20;99.90;;;;;;5051884;28;20159;-48
2022/11/12 12:21:07;;;;;;;4.95;3.33;;;11.30;99.90;;;;;;5052514;28;20417;-51
2022/11/12 12:23:56;;;;;;;5.80;3.10;;;11.20;99.90;;;;;;5045452;28;20064;-50
2022/11/12 12:26:47;;;;;;;4.90;2.97;;;11.30;99.90;;;;;;5051840;28;20095;-49
2022/11/12 12:29:46;;;;;;;3.45;2.20;;;11.40;99.90;;;;;;5052443;28;20163;-48
2022/11/12 12:32:39;;;;;;;3.75;2.60;;;11.30;99.90;;;;;;5032674;28;20068;-48
2022/11/12 12:35:43;;;;;;;4.13;2.47;;;11.30;99.90;;;;;;5049303;28;20048;-50
2022/11/12 12:38:51;;;;;;;5.88;2.75;;;11.40;99.90;;;;;;5050467;28;20126;-48
2022/11/12 12:41:51;;;;;;;7.18;3.20;;;11.50;99.90;;;;;;5046951;28;20421;-48
2022/11/12 12:45:00;;;;;;;5.70;3.28;;;11.60;99.90;;;;;;5050762;28;20056;-48
2022/11/12 12:47:47;;;;;;;7.50;3.40;;;11.70;99.90;;;;;;5047635;28;20052;-48
2022/11/12 12:50:37;;;;;;;7.97;3.90;;;11.90;99.90;;;;;;5045749;28;20059;-49
2022/11/12 12:53:28;;;;;;;7.07;4.30;;;11.90;99.90;;;;;;5049434;28;20044;-50
2022/11/12 12:56:14;;;;;;;7.55;3.65;;;12.00;99.90;;;;;;5048461;28;20060;-49
2022/11/12 12:59:02;;;;;;;7.68;4.63;;;11.90;99.90;;;;;;5050054;28;20044;-49
2022/11/12 13:02:18;;;;;;;9.85;4.50;;;11.90;99.90;;;;;;5046647;28;20064;-48
2022/11/12 13:05:05;;;;;;;7.60;3.70;;;11.90;99.90;;;;;;5058688;28;20052;-48
2022/11/12 13:07:51;;;;;;;8.48;3.67;;;12.00;99.90;;;;;;5050210;28;20168;-48
2022/11/12 13:10:40;;;;;;;7.30;3.63;;;12.00;99.90;;;;;;5051204;28;20056;-48
2022/11/12 13:13:34;;;;;;;4.00;3.05;;;12.00;99.90;;;;;;5047439;28;20091;-50
2022/11/12 13:16:50;;;;;;;7.07;3.33;;;11.90;99.90;;;;;;5051237;28;20060;-48
2022/11/12 13:19:44;;;;;;;6.78;3.90;;;11.90;99.90;;;;;;5051233;28;20106;-48
2022/11/12 13:22:54;;;;;;;7.82;4.18;;;11.80;99.90;;;;;;5068870;22;20416;-51
2022/11/12 13:26:38;;;;;;;8.80;3.97;;;11.90;99.90;;;;;;5053097;28;20087;-49
2022/11/12 13:29:44;;;;;;;11.32;3.80;;;11.90;99.90;;;;;;5057715;28;20520;-48
2022/11/12 13:32:40;;;;;;;8.85;3.95;;;11.90;99.90;;;;;;5055886;28;20044;-51
2022/11/12 13:35:29;;;;;;;6.93;3.55;;;11.80;99.90;;;;;;5040089;28;20523;-49
2022/11/12 13:38:14;;;;;;;5.28;3.28;;;11.60;99.90;;;;;;5049980;28;20048;-51
2022/11/12 13:41:02;;;;;;;7.93;3.92;;;11.60;99.90;;;;;;5051898;28;20056;-48
2022/11/12 13:43:48;;;;;;;8.10;4.05;;;11.50;99.90;;;;;;5046452;28;20151;-48
2022/11/12 13:46:33;;;;;;;6.95;3.50;;;11.50;99.90;;;;;;5035046;28;20611;-48
2022/11/12 13:49:19;;;;;;;6.10;3.47;;;11.50;99.90;;;;;;5036189;28;20068;-48
2022/11/12 13:52:05;;;;;;;6.10;3.60;;;11.40;99.90;;;;;;5048496;28;20108;-49
2022/11/12 13:55:17;;;;;;;6.07;3.33;;;11.30;99.90;;;;;;5029241;28;20552;-48
2022/11/12 13:58:02;;;;;;;8.20;3.65;;;11.30;99.90;;;;;;5030464;28;20527;-48
2022/11/12 14:00:56;;;;;;;5.20;3.70;;;11.30;99.90;;;;;;5037903;28;20047;-49
2022/11/12 14:03:48;;;;;;;6.53;3.63;;;11.20;99.90;;;;;;5044902;28;20242;-49
2022/11/12 14:06:36;;;;;;;5.25;3.25;;;11.10;99.90;;;;;;5049703;28;20048;-48
2022/11/12 14:09:43;;;;;;;7.28;3.35;;;11.10;99.90;;;;;;5048721;28;20127;-48
2022/11/12 14:12:48;;;;;;;7.00;3.63;;;11.00;99.90;;;;;;5044699;28;20036;-50
2022/11/12 14:16:16;;;;;;;7.57;3.60;;;11.00;99.90;;;;;;5051134;28;20556;-48
2022/11/12 14:19:24;;;;;;;6.18;3.63;;;11.00;99.90;;;;;;5030624;28;20057;-49
2022/11/12 14:22:17;;;;;;;6.40;3.58;;;10.90;99.90;;;;;;5029442;28;20056;-48
2022/11/12 14:25:11;;;;;;;4.65;3.60;;;11.00;99.90;;;;;;5030783;28;20053;-48
2022/11/12 14:27:56;;;;;;;7.80;3.58;;;11.00;99.90;;;;;;5042805;28;20048;-48
2022/11/12 14:30:43;;;;;;;6.43;3.67;;;11.00;99.90;;;;;;5030623;28;20195;-48
2022/11/12 14:33:30;;;;;;;4.90;3.45;;;11.00;99.90;;;;;;5038389;28;20102;-49
2022/11/12 14:36:20;;;;;;;7.88;3.72;;;11.00;99.90;;;;;;5039800;28;20047;-49
2022/11/12 14:39:06;;;;;;;7.22;4.00;;;10.80;99.90;;;;;;5031071;28;20052;-49
2022/11/12 14:41:53;;;;;;;7.03;4.15;;;10.80;99.90;;;;;;5029493;28;20088;-49
2022/11/12 14:44:38;;;;;;;6.80;4.00;;;10.80;99.90;;;;;;5046617;28;20040;-48
2022/11/12 14:47:24;;;;;;;5.07;3.72;;;10.70;99.90;;;;;;5046299;28;20675;-48
2022/11/12 14:50:35;;;;;;;6.93;3.83;;;10.70;99.90;;;;;;5050267;28;20122;-48
2022/11/12 14:53:34;;;;;;;6.47;3.70;;;10.50;99.90;;;;;;5045285;28;20056;-48
2022/11/12 14:56:31;;;;;;;7.97;4.70;;;10.50;99.90;;;;;;5039059;28;20130;-48
2022/11/12 14:59:20;;;;;;;19.90;5.55;;;10.40;99.90;;;;;;5049225;28;20060;-47
2022/11/12 15:02:12;;;;;;;13.30;6.20;;;10.30;99.90;;;;;;5043271;28;20052;-48
2022/11/12 15:05:19;;;;;;;16.52;9.98;;;10.20;99.90;;;;;;5043953;28;20044;-48
2022/11/12 15:08:10;;;;;;;22.38;13.38;;;10.10;99.90;;;;;;5031080;28;20130;-48
2022/11/12 15:10:56;;;;;;;25.50;14.63;;;10.00;99.90;;;;;;5048462;28;20060;-49
2022/11/12 15:13:43;;;;;;;23.08;13.93;;;9.90;99.90;;;;;;5054994;28;20060;-49
2022/11/12 15:16:33;;;;;;;29.83;16.35;;;9.90;99.90;;;;;;5056171;28;20137;-50
2022/11/12 15:19:23;;;;;;;31.60;17.40;;;9.70;99.90;;;;;;5058465;28;20098;-47
2022/11/12 15:22:21;;;;;;;45.75;23.48;;;9.60;99.90;;;;;;5062618;28;20059;-49